sensor_id;sensor_type;location;lat;lon;timestamp;temperature;humidity
45311;SHT31;68264;51.540;5.854;2023-10-13T00:05:31;17.5;94.4
45311;SHT31;68264;51.540;5.854;2023-10-13T00:19:30;17.5;94.7
45311;SHT31;68264;51.540;5.854;2023-10-13T00:33:29;17.5;94.8
45311;SHT31;68264;51.540;5.854;2023-10-13T00:47:28;17.5;94.8
45311;SHT31;68264;51.540;5.854;2023-10-13T01:01:27;17.4;95.0
45311;SHT31;68264;51.540;5.854;2023-10-13T01:15:26;17.5;95.0
45311;SHT31;68264;51.540;5.854;2023-10-13T01:29:25;17.5;94.6
45311;SHT31;68264;51.540;5.854;2023-10-13T01:43:24;17.5;94.9
45311;SHT31;68264;51.540;5.854;2023-10-13T01:57:23;17.5;95.1
45311;SHT31;68264;51.540;5.854;2023-10-13T02:11:21;17.5;95.4
45311;SHT31;68264;51.540;5.854;2023-10-13T02:25:10;17.5;95.7
45311;SHT31;68264;51.540;5.854;2023-10-13T02:39:09;17.6;95.8
45311;SHT31;68264;51.540;5.854;2023-10-13T02:53:08;17.6;95.9
45311;SHT31;68264;51.540;5.854;2023-10-13T03:07:07;17.6;96.0
45311;SHT31;68264;51.540;5.854;2023-10-13T03:21:35;17.6;96.1
45311;SHT31;68264;51.540;5.854;2023-10-13T03:36:24;17.7;96.1
45311;SHT31;68264;51.540;5.854;2023-10-13T03:51:12;17.7;96.5
45311;SHT31;68264;51.540;5.854;2023-10-13T04:06:32;17.7;96.6
45311;SHT31;68264;51.540;5.854;2023-10-13T04:21:32;17.8;96.8
45311;SHT31;68264;51.540;5.854;2023-10-13T04:35:31;17.8;97.0
45311;SHT31;68264;51.540;5.854;2023-10-13T04:49:30;17.9;97.0
45311;SHT31;68264;51.540;5.854;2023-10-13T05:04:30;18.0;97.2
45311;SHT31;68264;51.540;5.854;2023-10-13T05:19:59;18.1;97.0
45311;SHT31;68264;51.540;5.854;2023-10-13T05:34:18;18.2;96.8
45311;SHT31;68264;51.540;5.854;2023-10-13T05:48:17;18.2;96.9
45311;SHT31;68264;51.540;5.854;2023-10-13T06:02:16;18.2;96.8
45311;SHT31;68264;51.540;5.854;2023-10-13T06:16:15;18.2;96.6
45311;SHT31;68264;51.540;5.854;2023-10-13T06:30:15;18.2;96.1
45311;SHT31;68264;51.540;5.854;2023-10-13T06:44:43;18.2;95.4
45311;SHT31;68264;51.540;5.854;2023-10-13T06:59:02;18.3;94.7
45311;SHT31;68264;51.540;5.854;2023-10-13T07:13:01;18.4;94.7
45311;SHT31;68264;51.540;5.854;2023-10-13T07:27:00;18.5;94.8
45311;SHT31;68264;51.540;5.854;2023-10-13T07:42:00;18.6;94.7
45311;SHT31;68264;51.540;5.854;2023-10-13T07:57:00;18.9;93.1
45311;SHT31;68264;51.540;5.854;2023-10-13T08:10:59;19.2;91.1
45311;SHT31;68264;51.540;5.854;2023-10-13T08:24:58;19.6;87.6
45311;SHT31;68264;51.540;5.854;2023-10-13T08:38:57;19.9;85.4
45311;SHT31;68264;51.540;5.854;2023-10-13T08:53:25;20.3;82.4
45311;SHT31;68264;51.540;5.854;2023-10-13T09:08:13;20.6;79.7
45311;SHT31;68264;51.540;5.854;2023-10-13T09:22:33;20.8;79.4
45311;SHT31;68264;51.540;5.854;2023-10-13T09:36:32;20.7;78.3
45311;SHT31;68264;51.540;5.854;2023-10-13T09:50:31;20.9;77.8
45311;SHT31;68264;51.540;5.854;2023-10-13T10:04:59;21.2;74.9
45311;SHT31;68264;51.540;5.854;2023-10-13T10:20:19;21.3;74.5
45311;SHT31;68264;51.540;5.854;2023-10-13T10:35:19;21.7;73.6
45311;SHT31;68264;51.540;5.854;2023-10-13T10:49:18;22.0;73.0
45311;SHT31;68264;51.540;5.854;2023-10-13T11:04:50;22.1;71.5
45311;SHT31;68264;51.540;5.854;2023-10-13T11:21:21;22.4;71.0
45311;SHT31;68264;51.540;5.854;2023-10-13T11:36:50;22.4;70.2
45311;SHT31;68264;51.540;5.854;2023-10-13T11:51:09;22.7;68.2
45311;SHT31;68264;51.540;5.854;2023-10-13T12:05:08;22.9;67.0
45311;SHT31;68264;51.540;5.854;2023-10-13T12:19:07;23.1;66.7
45311;SHT31;68264;51.540;5.854;2023-10-13T12:33:06;23.9;64.6
45311;SHT31;68264;51.540;5.854;2023-10-13T12:47:35;23.6;65.1
45311;SHT31;68264;51.540;5.854;2023-10-13T13:02:23;23.5;64.1
45311;SHT31;68264;51.540;5.854;2023-10-13T13:18:15;23.2;64.5
45311;SHT31;68264;51.540;5.854;2023-10-13T13:34:14;23.3;63.7
45311;SHT31;68264;51.540;5.854;2023-10-13T13:48:34;23.2;64.8
45311;SHT31;68264;51.540;5.854;2023-10-13T14:05:10;23.1;64.0
45311;SHT31;68264;51.540;5.854;2023-10-13T14:23:45;22.8;64.7
45311;SHT31;68264;51.540;5.854;2023-10-13T14:39:46;22.8;65.5
45311;SHT31;68264;51.540;5.854;2023-10-13T14:53:45;22.7;65.6
45311;SHT31;68264;51.540;5.854;2023-10-13T15:07:44;22.6;66.0
45311;SHT31;68264;51.540;5.854;2023-10-13T15:21:43;22.4;66.5
45311;SHT31;68264;51.540;5.854;2023-10-13T15:35:42;22.2;67.4
45311;SHT31;68264;51.540;5.854;2023-10-13T15:49:41;21.3;71.8
45311;SHT31;68264;51.540;5.854;2023-10-13T16:04:09;21.0;72.6
45311;SHT31;68264;51.540;5.854;2023-10-13T16:18:28;20.7;74.0
45311;SHT31;68264;51.540;5.854;2023-10-13T16:32:27;20.1;76.8
45311;SHT31;68264;51.540;5.854;2023-10-13T16:47:27;20.3;75.1
45311;SHT31;68264;51.540;5.854;2023-10-13T17:02:27;20.4;73.4
45311;SHT31;68264;51.540;5.854;2023-10-13T17:17:59;19.5;79.4
45311;SHT31;68264;51.540;5.854;2023-10-13T17:33:29;18.7;84.7
45311;SHT31;68264;51.540;5.854;2023-10-13T17:47:28;18.4;85.9
45311;SHT31;68264;51.540;5.854;2023-10-13T18:01:27;18.6;84.4
45311;SHT31;68264;51.540;5.854;2023-10-13T18:15:26;18.7;84.2
45311;SHT31;68264;51.540;5.854;2023-10-13T18:30:27;19.1;82.7
45311;SHT31;68264;51.540;5.854;2023-10-13T18:46:59;18.6;86.4
45311;SHT31;68264;51.540;5.854;2023-10-13T19:02:29;18.3;89.3
45311;SHT31;68264;51.540;5.854;2023-10-13T19:17:30;18.0;89.2
45311;SHT31;68264;51.540;5.854;2023-10-13T19:32:58;17.9;89.4
45311;SHT31;68264;51.540;5.854;2023-10-13T19:49:23;17.8;91.3
45311;SHT31;68264;51.540;5.854;2023-10-13T20:05:23;18.0;91.0
45311;SHT31;68264;51.540;5.854;2023-10-13T20:21:59;18.2;90.0
45311;SHT31;68264;51.540;5.854;2023-10-13T20:38:30;18.2;89.8
45311;SHT31;68264;51.540;5.854;2023-10-13T20:54:02;18.4;88.6
45311;SHT31;68264;51.540;5.854;2023-10-13T21:10:33;18.5;87.6
45311;SHT31;68264;51.540;5.854;2023-10-13T21:26:34;18.5;86.9
45311;SHT31;68264;51.540;5.854;2023-10-13T21:41:33;18.7;85.7
45311;SHT31;68264;51.540;5.854;2023-10-13T21:55:32;18.7;84.9
45311;SHT31;68264;51.540;5.854;2023-10-13T22:09:31;18.8;84.5
45311;SHT31;68264;51.540;5.854;2023-10-13T22:24:00;18.9;83.8
45311;SHT31;68264;51.540;5.854;2023-10-13T22:38:19;19.1;82.1
45311;SHT31;68264;51.540;5.854;2023-10-13T22:52:18;19.3;80.6
45311;SHT31;68264;51.540;5.854;2023-10-13T23:06:17;19.4;80.0
45311;SHT31;68264;51.540;5.854;2023-10-13T23:20:16;19.5;78.8
45311;SHT31;68264;51.540;5.854;2023-10-13T23:35:48;19.5;76.9
45311;SHT31;68264;51.540;5.854;2023-10-13T23:51:18;18.4;82.5
